createdAt,value
2017-10-21T00:00:47.743Z,87.18
2017-10-21T00:03:15.479Z,87.08
2017-10-21T00:05:43.091Z,86.70
2017-10-21T00:08:10.832Z,86.33
2017-10-21T00:10:38.447Z,86.39
2017-10-21T00:13:06.071Z,86.76
2017-10-21T00:15:33.762Z,87.00
2017-10-21T00:18:01.384Z,86.97
2017-10-21T00:20:29.060Z,87.11
2017-10-21T00:22:56.715Z,86.82
2017-10-21T00:25:24.334Z,86.66
2017-10-21T00:27:51.947Z,86.83
2017-10-21T00:30:19.604Z,86.17
2017-10-21T00:32:47.223Z,85.92
2017-10-21T00:35:14.835Z,86.02
2017-10-21T00:37:42.506Z,86.30
2017-10-21T00:40:10.186Z,86.27
2017-10-21T00:42:37.860Z,86.19
2017-10-21T00:45:05.534Z,86.02
2017-10-21T00:47:33.143Z,85.66
2017-10-21T00:50:00.779Z,85.65
2017-10-21T00:52:28.444Z,86.15
2017-10-21T00:54:56.124Z,86.16
2017-10-21T00:57:23.945Z,86.03
2017-10-21T00:59:51.711Z,86.32
2017-10-21T01:02:19.319Z,86.15
2017-10-21T01:04:46.998Z,85.80
2017-10-21T01:07:14.731Z,85.37
2017-10-21T01:09:42.383Z,85.29
2017-10-21T01:12:10.015Z,85.25
2017-10-21T01:14:37.704Z,85.23
2017-10-21T01:17:05.310Z,85.57
2017-10-21T01:19:32.991Z,85.89
2017-10-21T01:22:00.736Z,86.29
2017-10-21T01:24:28.361Z,86.13
2017-10-21T01:26:55.987Z,85.70
2017-10-21T01:29:23.800Z,85.70
2017-10-21T01:31:51.438Z,85.98
2017-10-21T01:34:19.105Z,86.12
2017-10-21T01:36:46.855Z,86.13
2017-10-21T01:39:14.483Z,85.98
2017-10-21T01:41:42.103Z,85.83
2017-10-21T01:44:09.876Z,85.82
2017-10-21T01:46:37.590Z,85.81
2017-10-21T01:49:05.219Z,85.99
2017-10-21T01:51:32.952Z,86.40
2017-10-21T01:54:00.582Z,86.58
2017-10-21T01:56:28.271Z,86.67
2017-10-21T01:58:55.943Z,86.37
2017-10-21T02:01:23.559Z,85.81
2017-10-21T02:03:51.238Z,85.16
2017-10-21T02:06:18.908Z,85.04
2017-10-21T02:08:46.526Z,85.08
2017-10-21T02:11:14.174Z,85.62
2017-10-21T02:13:42.219Z,86.08
2017-10-21T02:16:09.860Z,86.37
2017-10-21T02:18:37.503Z,86.57
2017-10-21T02:21:05.201Z,86.43
2017-10-21T02:23:32.898Z,86.51
2017-10-21T02:26:00.520Z,86.55
2017-10-21T02:28:28.284Z,86.59
2017-10-21T02:30:55.984Z,86.72
2017-10-21T02:33:23.599Z,86.69
2017-10-21T02:35:51.284Z,86.70
2017-10-21T02:38:18.919Z,86.48
2017-10-21T02:40:46.604Z,86.21
2017-10-21T02:43:14.292Z,85.41
2017-10-21T02:45:41.915Z,85.03
2017-10-21T02:48:09.540Z,85.37
2017-10-21T02:50:37.224Z,85.60
2017-10-21T02:53:04.922Z,85.57
2017-10-21T02:55:32.555Z,86.18
2017-10-21T02:58:00.207Z,86.63
2017-10-21T03:00:27.902Z,86.04
2017-10-21T03:02:55.511Z,85.38
2017-10-21T03:05:23.247Z,85.43
2017-10-21T03:07:50.928Z,85.19
2017-10-21T03:10:18.653Z,85.11
2017-10-21T03:12:46.315Z,85.28
2017-10-21T03:15:13.984Z,85.28
2017-10-21T03:17:41.620Z,85.37
2017-10-21T03:20:09.292Z,85.43
2017-10-21T03:22:36.928Z,86.19
2017-10-21T03:25:04.626Z,86.33
2017-10-21T03:27:32.317Z,86.86
2017-10-21T03:29:59.950Z,87.13
2017-10-21T03:32:27.657Z,87.13
2017-10-21T03:34:55.340Z,86.96
2017-10-21T03:37:22.963Z,86.55
2017-10-21T03:39:50.656Z,86.18
2017-10-21T03:42:18.325Z,86.24
2017-10-21T03:44:46.026Z,86.17
2017-10-21T03:47:13.638Z,86.72
2017-10-21T03:49:41.369Z,87.05
2017-10-21T03:52:08.983Z,87.18
2017-10-21T03:54:36.707Z,86.48
2017-10-21T03:57:04.433Z,86.17
2017-10-21T03:59:32.178Z,86.27
2017-10-21T04:01:59.804Z,86.48
2017-10-21T04:04:27.536Z,86.39
2017-10-21T04:06:55.228Z,86.07
2017-10-21T04:09:22.856Z,86.05
2017-10-21T04:11:50.604Z,85.87
2017-10-21T04:14:18.228Z,86.00
2017-10-21T04:16:45.963Z,86.28
2017-10-21T04:19:13.684Z,86.84
2017-10-21T04:21:41.370Z,87.00
2017-10-21T04:24:09.108Z,86.85
2017-10-21T04:26:36.768Z,87.03
2017-10-21T04:29:04.413Z,87.38
2017-10-21T04:31:32.076Z,87.53
2017-10-21T04:33:59.746Z,87.56
2017-10-21T04:36:27.355Z,87.50
2017-10-21T04:38:54.967Z,86.73
2017-10-21T04:41:22.635Z,86.32
2017-10-21T04:43:50.242Z,86.15
2017-10-21T04:46:17.846Z,86.08
2017-10-21T04:48:45.629Z,86.31
2017-10-21T04:51:13.327Z,86.48
2017-10-21T04:53:40.943Z,86.20
2017-10-21T04:56:08.606Z,86.03
2017-10-21T04:58:36.220Z,86.08
2017-10-21T05:01:03.832Z,86.11
2017-10-21T05:03:31.568Z,85.99
2017-10-21T05:05:59.183Z,85.61
2017-10-21T05:08:26.859Z,85.20
2017-10-21T05:10:54.519Z,84.66
2017-10-21T05:13:22.199Z,84.26
2017-10-21T05:15:49.823Z,83.81
2017-10-21T05:18:17.487Z,83.54
2017-10-21T05:20:45.095Z,82.91
2017-10-21T05:23:12.836Z,82.82
2017-10-21T05:25:40.547Z,82.10
2017-10-21T05:28:08.215Z,81.46
2017-10-21T05:30:35.884Z,81.25
2017-10-21T05:33:03.556Z,80.69
2017-10-21T05:35:31.185Z,80.55
2017-10-21T05:37:58.856Z,80.64
2017-10-21T05:40:26.563Z,80.39
2017-10-21T05:42:54.305Z,80.11
2017-10-21T05:45:21.975Z,79.76
2017-10-21T05:47:49.769Z,79.48
2017-10-21T05:50:17.451Z,79.65
2017-10-21T05:52:45.180Z,77.65
2017-10-21T05:55:12.904Z,77.23
2017-10-21T05:57:40.514Z,77.77
2017-10-21T06:00:08.197Z,77.46
2017-10-21T06:02:35.916Z,77.81
2017-10-21T06:05:03.542Z,76.86
2017-10-21T06:07:31.228Z,76.95
2017-10-21T06:09:58.895Z,76.17
2017-10-21T06:12:26.566Z,76.70
2017-10-21T06:14:54.243Z,76.41
2017-10-21T06:17:22.076Z,76.10
2017-10-21T06:19:49.748Z,75.67
2017-10-21T06:22:17.412Z,74.95
2017-10-21T06:24:45.192Z,74.83
2017-10-21T06:27:13.015Z,74.78
2017-10-21T06:29:40.684Z,75.45
2017-10-21T06:32:08.424Z,74.25
2017-10-21T06:34:36.031Z,74.39
2017-10-21T06:37:03.695Z,73.89
2017-10-21T06:39:31.444Z,73.78
2017-10-21T06:41:59.135Z,73.40
2017-10-21T06:44:26.780Z,72.94
2017-10-21T06:46:54.444Z,73.81
2017-10-21T06:49:22.005Z,73.04
2017-10-21T06:51:49.550Z,72.97
2017-10-21T06:54:17.128Z,72.29
2017-10-21T06:56:44.732Z,71.30
2017-10-21T06:59:12.346Z,71.71
2017-10-21T07:01:39.934Z,71.23
2017-10-21T07:04:07.470Z,71.72
2017-10-21T07:06:35.059Z,70.10
2017-10-21T07:09:02.754Z,71.27
2017-10-21T07:11:30.290Z,69.71
2017-10-21T07:13:57.834Z,68.73
2017-10-21T07:16:25.422Z,69.56
2017-10-21T07:18:52.970Z,69.66
2017-10-21T07:21:20.586Z,69.39
2017-10-21T07:23:48.170Z,68.71
2017-10-21T07:26:15.707Z,67.81
2017-10-21T07:28:43.249Z,66.66
2017-10-21T07:31:10.830Z,66.96
2017-10-21T07:33:38.390Z,65.40
2017-10-21T07:36:05.937Z,65.91
2017-10-21T07:38:33.514Z,65.59
2017-10-21T07:41:01.057Z,65.22
2017-10-21T07:43:28.598Z,65.78
2017-10-21T07:45:56.280Z,65.48
2017-10-21T07:48:23.824Z,64.17
2017-10-21T07:50:51.362Z,63.11
2017-10-21T07:53:18.942Z,63.73
2017-10-21T07:55:46.485Z,61.16
2017-10-21T07:58:14.080Z,61.77
2017-10-21T08:00:41.662Z,60.86
2017-10-21T08:03:09.202Z,61.18
2017-10-21T08:05:36.752Z,59.60
2017-10-21T08:08:04.330Z,59.58
2017-10-21T08:10:31.865Z,61.87
2017-10-21T08:12:59.403Z,60.53
2017-10-21T08:15:26.975Z,59.63
2017-10-21T08:17:54.509Z,59.37
2017-10-21T08:20:22.050Z,59.41
2017-10-21T08:22:49.652Z,57.98
2017-10-21T08:25:17.202Z,57.37
2017-10-21T08:27:44.734Z,57.65
2017-10-21T08:30:12.353Z,58.40
2017-10-21T08:32:39.911Z,58.54
2017-10-21T08:35:07.502Z,58.24
2017-10-21T08:37:35.134Z,58.47
2017-10-21T08:40:02.702Z,57.75
2017-10-21T08:42:30.297Z,57.60
2017-10-21T08:44:57.941Z,57.32
2017-10-21T08:47:25.478Z,56.41
2017-10-21T08:49:53.023Z,55.96
2017-10-21T08:52:20.594Z,56.82
2017-10-21T08:54:48.139Z,55.89
2017-10-21T08:57:15.682Z,54.47
2017-10-21T08:59:43.258Z,54.54
2017-10-21T09:02:10.852Z,54.43
2017-10-21T09:04:38.398Z,54.16
2017-10-21T09:07:05.983Z,53.48
2017-10-21T09:09:33.517Z,52.54
2017-10-21T09:12:01.068Z,52.57
2017-10-21T09:14:28.645Z,52.23
2017-10-21T09:16:56.207Z,51.06
2017-10-21T09:19:23.859Z,49.41
2017-10-21T09:21:51.430Z,49.45
2017-10-21T09:24:18.971Z,50.34
2017-10-21T09:26:46.510Z,49.79
2017-10-21T09:29:14.078Z,49.86
2017-10-21T09:31:41.623Z,49.17
2017-10-21T09:34:09.165Z,48.04
2017-10-21T09:36:36.738Z,47.39
2017-10-21T09:39:04.381Z,46.84
2017-10-21T09:41:31.938Z,46.51
2017-10-21T09:43:59.534Z,46.08
2017-10-21T09:46:27.079Z,45.90
2017-10-21T09:48:54.613Z,45.89
2017-10-21T09:51:22.186Z,45.12
2017-10-21T09:53:49.774Z,44.82
2017-10-21T09:56:17.309Z,44.89
2017-10-21T09:58:44.881Z,45.87
2017-10-21T10:01:12.415Z,46.02
2017-10-21T10:03:39.949Z,45.12
2017-10-21T10:06:07.518Z,45.10
2017-10-21T10:08:35.058Z,43.73
2017-10-21T10:11:02.847Z,44.56
2017-10-21T10:13:30.442Z,45.40
2017-10-21T10:15:57.990Z,42.84
2017-10-21T10:18:25.550Z,43.19
2017-10-21T10:20:53.122Z,42.38
2017-10-21T10:23:20.658Z,41.80
2017-10-21T10:25:48.198Z,41.96
2017-10-21T10:28:15.772Z,40.77
2017-10-21T10:30:43.313Z,40.43
2017-10-21T10:33:10.850Z,40.54
2017-10-21T10:35:38.430Z,41.04
2017-10-21T10:38:05.970Z,39.84
2017-10-21T10:40:33.520Z,40.14
2017-10-21T10:43:01.089Z,38.68
2017-10-21T10:45:28.630Z,38.80
2017-10-21T10:47:56.218Z,38.00
2017-10-21T10:50:23.861Z,37.54
2017-10-21T10:52:51.464Z,37.17
2017-10-21T10:55:19.083Z,37.75
2017-10-21T10:57:46.765Z,38.23
2017-10-21T11:00:14.371Z,38.16
2017-10-21T11:02:41.987Z,37.64
2017-10-21T11:05:09.731Z,37.73
2017-10-21T11:07:37.394Z,37.65
2017-10-21T11:10:04.999Z,36.78
2017-10-21T11:12:32.648Z,37.34
2017-10-21T11:15:01.133Z,35.40
2017-10-21T11:17:28.735Z,33.05
2017-10-21T11:19:56.379Z,31.51
2017-10-21T11:22:24.039Z,30.66
2017-10-21T11:24:51.696Z,28.85
2017-10-21T11:27:19.344Z,28.17
2017-10-21T11:29:46.939Z,28.03
2017-10-21T11:32:14.604Z,28.00
2017-10-21T11:34:42.244Z,28.37
2017-10-21T11:37:09.843Z,29.88
2017-10-21T11:39:37.450Z,28.22
2017-10-21T11:42:05.091Z,27.97
2017-10-21T11:44:32.706Z,27.00
2017-10-21T11:47:00.404Z,26.04
2017-10-21T11:49:28.060Z,26.24
2017-10-21T11:51:55.712Z,26.55
2017-10-21T11:54:23.375Z,28.16
2017-10-21T11:56:51.018Z,29.70
2017-10-21T11:59:18.610Z,31.10
2017-10-21T12:01:46.210Z,32.49
2017-10-21T12:04:13.907Z,34.13
2017-10-21T12:06:41.567Z,34.79
2017-10-21T12:09:09.237Z,35.40
2017-10-21T12:11:36.933Z,36.13
2017-10-21T12:14:04.599Z,36.37
2017-10-21T12:16:32.256Z,37.37
2017-10-21T12:18:59.971Z,36.81
2017-10-21T12:21:27.628Z,37.26
2017-10-21T12:23:55.222Z,38.00
2017-10-21T12:26:22.921Z,38.08
2017-10-21T12:28:50.583Z,39.01
2017-10-21T12:31:18.187Z,38.94
2017-10-21T12:33:45.832Z,38.06
2017-10-21T12:36:13.499Z,38.57
2017-10-21T12:38:41.096Z,40.11
2017-10-21T12:41:08.744Z,39.11
2017-10-21T12:43:36.391Z,38.54
2017-10-21T12:46:04.048Z,37.63
2017-10-21T12:48:31.706Z,38.31
2017-10-21T12:50:59.363Z,38.12
2017-10-21T12:53:27.019Z,39.07
2017-10-21T12:55:54.732Z,39.13
2017-10-21T12:58:22.394Z,38.78
2017-10-21T13:00:50.047Z,39.42
2017-10-21T13:03:17.710Z,39.55
2017-10-21T13:05:45.371Z,39.47
2017-10-21T13:08:12.974Z,39.22
2017-10-21T13:10:40.626Z,39.43
2017-10-21T13:13:08.220Z,39.60
2017-10-21T13:15:35.883Z,39.97
2017-10-21T13:18:03.531Z,40.47
2017-10-21T13:20:31.124Z,40.46
2017-10-21T13:22:58.789Z,39.74
2017-10-21T13:25:26.430Z,39.12
2017-10-21T13:27:54.032Z,39.59
2017-10-21T13:30:21.634Z,39.60
2017-10-21T13:32:49.287Z,38.79
2017-10-21T13:35:16.887Z,39.34
2017-10-21T13:37:44.475Z,38.35
2017-10-21T13:40:12.122Z,38.52
2017-10-21T13:42:39.719Z,39.23
2017-10-21T13:45:07.336Z,39.11
2017-10-21T13:47:34.980Z,38.96
2017-10-21T13:50:02.580Z,39.65
2017-10-21T13:52:30.171Z,38.37
2017-10-21T13:54:57.879Z,39.39
2017-10-21T13:57:25.479Z,38.52
2017-10-21T13:59:53.081Z,39.04
2017-10-21T14:02:20.737Z,39.38
2017-10-21T14:08:19.168Z,40.06
2017-10-21T14:10:46.770Z,40.60
2017-10-21T14:13:14.485Z,41.19
2017-10-21T14:15:42.196Z,41.02
2017-10-21T14:18:09.916Z,42.28
2017-10-21T14:20:38.652Z,42.05
2017-10-21T14:23:06.407Z,42.86
2017-10-21T14:25:34.056Z,42.59
2017-10-21T14:28:01.735Z,42.88
2017-10-21T14:30:29.397Z,43.46
2017-10-21T14:32:57.059Z,43.37
2017-10-21T14:35:24.671Z,43.07
2017-10-21T14:37:52.312Z,43.41
2017-10-21T14:40:19.916Z,44.15
2017-10-21T14:42:47.519Z,44.67
2017-10-21T14:45:15.214Z,44.57
2017-10-21T14:47:42.811Z,44.32
2017-10-21T14:50:10.453Z,44.36
2017-10-21T14:52:38.120Z,44.42
2017-10-21T14:55:05.778Z,44.42
2017-10-21T14:57:33.495Z,44.38
2017-10-21T15:00:01.227Z,44.58
2017-10-21T15:02:28.983Z,44.91
2017-10-21T15:04:56.632Z,45.58
2017-10-21T15:07:24.297Z,46.12
2017-10-21T15:09:51.895Z,46.39
2017-10-21T15:12:19.500Z,46.51
2017-10-21T15:14:47.148Z,46.78
2017-10-21T15:17:14.763Z,46.95
2017-10-21T15:19:42.424Z,48.00
2017-10-21T15:22:10.132Z,48.62
2017-10-21T15:24:37.791Z,49.13
2017-10-21T15:27:05.512Z,50.24
2017-10-21T15:29:33.212Z,51.45
2017-10-21T15:32:00.814Z,52.30
2017-10-21T15:34:28.484Z,53.03
2017-10-21T15:36:56.126Z,53.91
2017-10-21T15:39:23.732Z,54.42
2017-10-21T15:41:51.388Z,54.79
2017-10-21T15:44:19.055Z,54.68
2017-10-21T15:46:46.659Z,55.33
2017-10-21T15:49:14.284Z,55.73
2017-10-21T15:51:41.999Z,56.18
2017-10-21T15:54:09.607Z,55.86
2017-10-21T15:56:37.237Z,56.02
2017-10-21T15:59:04.911Z,56.35
2017-10-21T16:01:32.580Z,56.74
2017-10-21T16:04:00.182Z,56.90
2017-10-21T16:06:27.896Z,56.95
2017-10-21T16:08:55.567Z,57.05
2017-10-21T16:11:23.171Z,57.42
2017-10-21T16:13:50.879Z,57.74
2017-10-21T16:16:18.495Z,58.24
2017-10-21T16:18:46.155Z,58.62
2017-10-21T16:21:13.959Z,58.97
2017-10-21T16:23:41.562Z,59.23
2017-10-21T16:26:09.162Z,59.24
2017-10-21T16:28:36.880Z,58.94
2017-10-21T16:31:04.483Z,58.44
2017-10-21T16:33:32.103Z,58.33
2017-10-21T16:35:59.812Z,58.63
2017-10-21T16:38:27.419Z,59.21
2017-10-21T16:40:55.091Z,59.67
2017-10-21T16:43:22.765Z,59.67
2017-10-21T16:45:50.433Z,59.57
2017-10-21T16:48:18.035Z,60.29
2017-10-21T16:50:45.840Z,60.16
2017-10-21T16:53:13.447Z,60.54
2017-10-21T16:55:41.115Z,60.87
2017-10-21T16:58:08.780Z,61.37
2017-10-21T17:00:36.443Z,61.30
2017-10-21T17:03:04.114Z,61.47
2017-10-21T17:05:31.815Z,61.64
2017-10-21T17:07:59.541Z,61.37
2017-10-21T17:10:27.162Z,61.46
2017-10-21T17:12:54.958Z,61.49
2017-10-21T17:15:22.621Z,61.10
2017-10-21T17:17:50.239Z,61.96
2017-10-21T17:20:17.894Z,60.88
2017-10-21T17:22:45.605Z,61.19
2017-10-21T17:25:13.270Z,60.46
2017-10-21T17:27:40.923Z,60.86
2017-10-21T17:30:08.532Z,60.91
2017-10-21T17:32:36.205Z,60.75
2017-10-21T17:35:03.925Z,60.86
2017-10-21T17:37:31.605Z,60.70
2017-10-21T17:39:59.235Z,61.26
2017-10-21T17:42:27.055Z,60.81
2017-10-21T17:44:54.728Z,61.03
2017-10-21T17:47:22.361Z,60.75
2017-10-21T17:49:50.077Z,61.01
2017-10-21T17:52:17.696Z,61.06
2017-10-21T17:54:45.360Z,61.19
2017-10-21T17:57:13.087Z,61.18
2017-10-21T17:59:40.707Z,60.93
2017-10-21T18:02:08.324Z,61.23
2017-10-21T18:04:35.983Z,61.45
2017-10-21T18:07:03.588Z,61.11
2017-10-21T18:09:31.248Z,60.89
2017-10-21T18:11:58.904Z,60.13
2017-10-21T18:14:26.504Z,59.99
2017-10-21T18:16:54.108Z,59.90
2017-10-21T18:19:21.778Z,58.59
2017-10-21T18:21:49.396Z,58.51
2017-10-21T18:24:17.011Z,58.71
2017-10-21T18:26:44.663Z,58.10
2017-10-21T18:29:12.271Z,57.58
2017-10-21T18:31:39.887Z,56.83
2017-10-21T18:34:07.553Z,56.82
2017-10-21T18:36:35.215Z,56.72
2017-10-21T18:39:02.871Z,56.67
2017-10-21T18:41:30.536Z,55.46
2017-10-21T18:43:58.199Z,55.29
2017-10-21T18:46:25.807Z,55.26
2017-10-21T18:48:53.451Z,55.38
2017-10-21T18:51:21.122Z,54.26
2017-10-21T18:53:48.790Z,54.08
2017-10-21T18:56:16.451Z,53.99
2017-10-21T18:58:44.056Z,54.16
2017-10-21T19:01:11.664Z,53.05
2017-10-21T19:03:39.339Z,52.63
2017-10-21T19:06:07.001Z,52.95
2017-10-21T19:08:34.665Z,53.27
2017-10-21T19:11:02.340Z,53.10
2017-10-21T19:13:29.945Z,53.22
2017-10-21T19:15:57.552Z,53.47
2017-10-21T19:18:25.275Z,53.62
2017-10-21T19:20:52.871Z,53.53
2017-10-21T19:23:20.479Z,53.63
2017-10-21T19:25:48.127Z,53.26
2017-10-21T19:28:15.726Z,52.88
2017-10-21T19:30:43.400Z,52.23
2017-10-21T19:33:11.096Z,51.82
2017-10-21T19:35:38.690Z,51.44
2017-10-21T19:38:06.361Z,51.54
2017-10-21T19:40:34.025Z,51.63
2017-10-21T19:43:01.696Z,52.04
2017-10-21T19:45:29.352Z,52.19
2017-10-21T19:47:57.003Z,52.45
2017-10-21T19:50:24.667Z,52.76
2017-10-21T19:52:52.268Z,52.65
2017-10-21T19:55:19.931Z,52.72
2017-10-21T19:57:47.535Z,52.48
2017-10-21T20:00:15.150Z,52.24
2017-10-21T20:02:42.872Z,52.32
2017-10-21T20:05:10.483Z,52.44
2017-10-21T20:07:38.196Z,53.00
2017-10-21T20:10:06.043Z,52.68
2017-10-21T20:12:33.647Z,52.87
2017-10-21T20:15:01.272Z,53.11
2017-10-21T20:17:29.072Z,53.41
2017-10-21T20:19:56.667Z,53.45
2017-10-21T20:22:24.328Z,53.70
2017-10-21T20:24:51.991Z,53.94
2017-10-21T20:27:19.663Z,54.11
2017-10-21T20:29:47.324Z,54.57
2017-10-21T20:32:15.085Z,54.63
2017-10-21T20:34:42.752Z,54.79
2017-10-21T20:37:10.360Z,54.53
2017-10-21T20:39:38.059Z,54.64
2017-10-21T20:42:05.714Z,54.71
2017-10-21T20:44:33.320Z,55.12
2017-10-21T20:47:01.127Z,55.09
2017-10-21T20:49:28.855Z,55.43
2017-10-21T20:51:57.590Z,55.51
2017-10-21T20:54:25.238Z,55.34
2017-10-21T20:56:52.892Z,55.22
2017-10-21T20:59:20.485Z,55.55
2017-10-21T21:01:48.155Z,55.39
2017-10-21T21:04:15.750Z,55.50
2017-10-21T21:06:43.356Z,55.62
2017-10-21T21:09:11.072Z,55.71
2017-10-21T21:11:38.739Z,56.43
2017-10-21T21:14:06.341Z,56.84
2017-10-21T21:16:34.055Z,57.86
2017-10-21T21:19:01.712Z,59.51
2017-10-21T21:21:29.322Z,60.91
2017-10-21T21:23:57.043Z,61.56
2017-10-21T21:26:24.651Z,61.59
2017-10-21T21:28:52.258Z,62.00
2017-10-21T21:31:19.967Z,62.07
2017-10-21T21:33:47.638Z,62.42
2017-10-21T21:36:15.244Z,62.63
2017-10-21T21:38:42.960Z,62.67
2017-10-21T21:41:10.622Z,62.34
2017-10-21T21:43:38.281Z,61.72
2017-10-21T21:46:05.947Z,61.61
2017-10-21T21:48:33.613Z,61.88
2017-10-21T21:51:01.215Z,61.42
2017-10-21T21:53:28.861Z,63.82
2017-10-21T21:55:56.524Z,64.08
2017-10-21T21:58:24.129Z,64.92
2017-10-21T22:00:51.839Z,64.51
2017-10-21T22:03:19.504Z,64.37
2017-10-21T22:05:47.112Z,64.54
2017-10-21T22:08:14.828Z,64.84
2017-10-21T22:10:42.475Z,65.03
2017-10-21T22:13:10.093Z,65.22
2017-10-21T22:15:37.751Z,65.24
2017-10-21T22:18:05.355Z,64.96
2017-10-21T22:20:32.970Z,65.43
2017-10-21T22:23:00.631Z,65.28
2017-10-21T22:25:28.292Z,65.90
2017-10-21T22:27:55.966Z,65.89
2017-10-21T22:30:23.615Z,66.72
2017-10-21T22:32:51.284Z,67.41
2017-10-21T22:35:18.960Z,67.30
2017-10-21T22:37:46.672Z,67.51
2017-10-21T22:40:14.334Z,67.51
2017-10-21T22:42:41.940Z,67.58
2017-10-21T22:45:09.659Z,67.63
2017-10-21T22:47:37.279Z,67.54
2017-10-21T22:50:04.939Z,68.39
2017-10-21T22:52:32.596Z,68.67
2017-10-21T22:55:00.195Z,68.60
2017-10-21T22:57:27.799Z,68.62
2017-10-21T22:59:55.443Z,68.66
2017-10-21T23:02:23.163Z,68.57
2017-10-21T23:04:50.772Z,68.64
2017-10-21T23:07:18.428Z,68.72
2017-10-21T23:09:46.041Z,69.48
2017-10-21T23:12:13.904Z,69.83
2017-10-21T23:14:41.551Z,70.65
2017-10-21T23:17:09.165Z,70.09
2017-10-21T23:19:36.771Z,68.17
2017-10-21T23:22:04.419Z,67.02
2017-10-21T23:24:32.019Z,66.23
2017-10-21T23:26:59.620Z,65.63
2017-10-21T23:29:27.336Z,64.03
2017-10-21T23:31:55.000Z,62.78
2017-10-21T23:34:22.630Z,62.55
2017-10-21T23:36:50.349Z,62.87
2017-10-21T23:39:17.968Z,64.73
2017-10-21T23:41:45.563Z,65.93
2017-10-21T23:44:13.275Z,66.92
2017-10-21T23:46:40.876Z,67.45
2017-10-21T23:49:08.480Z,68.20
2017-10-21T23:51:36.135Z,68.67
2017-10-21T23:54:03.795Z,68.82
2017-10-21T23:56:31.395Z,68.37
2017-10-21T23:58:59.258Z,66.79
